createdAt,value
2023-04-27T00:00:17.338Z,1.7
2023-04-27T00:01:27.103Z,1.3
2023-04-27T00:02:36.817Z,1.6
2023-04-27T00:03:46.681Z,1.6
2023-04-27T00:04:56.559Z,1.8
2023-04-27T00:06:04.928Z,1.7
2023-04-27T00:07:13.708Z,1.7
2023-04-27T00:08:23.464Z,1.9
2023-04-27T00:09:33.228Z,1.7
2023-04-27T00:10:42.900Z,1.4
2023-04-27T00:11:52.699Z,1.9
2023-04-27T00:13:01.397Z,1.5
2023-04-27T00:14:11.101Z,1.7
2023-04-27T00:15:20.758Z,1.6
2023-04-27T00:16:28.477Z,1.4
2023-04-27T00:17:38.103Z,1.3
2023-04-27T00:18:46.759Z,1.7
2023-04-27T00:19:55.473Z,1.4
2023-04-27T00:21:05.159Z,1.1
2023-04-27T00:22:12.882Z,1.9
2023-04-27T00:23:22.589Z,1.6
2023-04-27T00:24:32.286Z,1.8
2023-04-27T00:25:40.943Z,1.6
2023-04-27T00:26:50.645Z,1.5
2023-04-27T00:28:00.308Z,1.9
2023-04-27T00:29:09.061Z,1.4
2023-04-27T00:30:18.744Z,1.7
2023-04-27T00:31:28.468Z,1.5
2023-04-27T00:32:38.364Z,1.4
2023-04-27T00:33:47.036Z,1.5
2023-04-27T00:34:55.708Z,1.6
2023-04-27T00:36:05.406Z,1.6
2023-04-27T00:37:13.163Z,1.3
2023-04-27T00:38:22.843Z,1.5
2023-04-27T00:39:32.558Z,1.3
2023-04-27T00:40:40.253Z,1.5
2023-04-27T00:41:49.966Z,1.5
2023-04-27T00:42:58.686Z,1.3
2023-04-27T00:44:08.357Z,1.6
2023-04-27T00:45:18.106Z,1.2
2023-04-27T00:46:27.785Z,1.6
2023-04-27T00:47:35.490Z,1.2
2023-04-27T00:48:45.135Z,1.6
2023-04-27T00:49:53.849Z,1.6
2023-04-27T00:51:02.592Z,1.7
2023-04-27T00:52:12.324Z,1.5
2023-04-27T00:53:20.004Z,1.4
2023-04-27T00:54:28.728Z,1.7
2023-04-27T00:55:38.402Z,1.4
2023-04-27T00:56:47.063Z,1.5
2023-04-27T00:57:56.741Z,2
2023-04-27T00:59:06.405Z,1.6
2023-04-27T01:00:15.087Z,1.2
2023-04-27T01:01:24.798Z,1.7
2023-04-27T01:02:33.626Z,1.6
2023-04-27T01:03:43.272Z,2
2023-04-27T01:04:52.864Z,1.4
2023-04-27T01:06:00.608Z,1.6
2023-04-27T01:07:10.386Z,1.5
2023-04-27T01:08:20.257Z,1.6
2023-04-27T01:09:30.051Z,1.4
2023-04-27T01:10:45.801Z,1.6
2023-04-27T01:11:55.436Z,1.1
2023-04-27T01:13:04.302Z,1.3
2023-04-27T01:14:14.929Z,1.5
2023-04-27T01:15:23.680Z,1.5
2023-04-27T01:16:31.335Z,1.6
2023-04-27T01:17:41.020Z,1.9
2023-04-27T01:18:49.736Z,1.7
2023-04-27T01:19:58.384Z,1.7
2023-04-27T01:21:08.078Z,1.8
2023-04-27T01:22:15.727Z,2.1
2023-04-27T01:23:25.475Z,1.8
2023-04-27T01:24:34.117Z,1.7
2023-04-27T01:25:41.769Z,2
2023-04-27T01:26:51.448Z,1.8
2023-04-27T01:28:00.147Z,2.4
2023-04-27T01:29:09.847Z,2.6
2023-04-27T01:30:19.493Z,1.9
2023-04-27T01:31:29.211Z,1.8
2023-04-27T01:32:38.924Z,1.8
2023-04-27T01:33:47.558Z,1.8
2023-04-27T01:34:56.259Z,1.9
2023-04-27T01:36:05.962Z,1.7
2023-04-27T01:37:13.608Z,1.9
2023-04-27T01:38:23.340Z,2
2023-04-27T01:39:33.024Z,1.9
2023-04-27T01:40:41.722Z,1.7
2023-04-27T01:41:51.358Z,1.5
2023-04-27T01:43:01.078Z,1.6
2023-04-27T01:44:08.714Z,2.3
2023-04-27T01:45:18.412Z,1.8
2023-04-27T01:46:27.110Z,1.7
2023-04-27T01:47:35.759Z,1.7
2023-04-27T01:48:45.390Z,2.2
2023-04-27T01:49:53.050Z,1.7
2023-04-27T01:51:02.713Z,1.8
2023-04-27T01:52:11.351Z,1.9
2023-04-27T01:53:21.019Z,1.9
2023-04-27T01:54:30.677Z,2.5
2023-04-27T01:55:39.383Z,2.5
2023-04-27T01:56:49.014Z,2.5
2023-04-27T01:57:58.676Z,2
2023-04-27T01:59:08.380Z,1.7
2023-04-27T02:00:18.041Z,1.5
2023-04-27T02:01:26.713Z,2
2023-04-27T02:02:34.489Z,1.9
2023-04-27T02:03:44.219Z,1.4
2023-04-27T02:04:52.806Z,2
2023-04-27T02:06:01.458Z,1.6
2023-04-27T02:07:11.100Z,1.6
2023-04-27T02:08:20.831Z,1.6
2023-04-27T02:09:30.501Z,1.7
2023-04-27T02:10:40.131Z,1.7
2023-04-27T02:11:48.841Z,1.4
2023-04-27T02:12:58.547Z,2.3
2023-04-27T02:14:07.307Z,1.7
2023-04-27T02:15:15.921Z,1.7
2023-04-27T02:16:24.620Z,1.2
2023-04-27T02:17:32.254Z,1.8
2023-04-27T02:18:42.928Z,1.7
2023-04-27T02:19:51.577Z,2.5
2023-04-27T02:20:59.234Z,1.3
2023-04-27T02:22:08.877Z,1.2
2023-04-27T02:23:18.582Z,1.7
2023-04-27T02:24:28.310Z,1.6
2023-04-27T02:25:38.061Z,1.6
2023-04-27T02:26:45.760Z,1.8
2023-04-27T02:27:55.435Z,1.8
2023-04-27T02:29:05.088Z,2.2
2023-04-27T02:30:13.740Z,2
2023-04-27T02:31:23.469Z,1.7
2023-04-27T02:32:32.192Z,1.9
2023-04-27T02:33:40.838Z,1.8
2023-04-27T02:34:50.486Z,1.7
2023-04-27T02:35:59.140Z,2.1
2023-04-27T02:37:08.799Z,2
2023-04-27T02:38:17.442Z,2.1
2023-04-27T02:39:25.096Z,1.9
2023-04-27T02:40:34.770Z,1.9
2023-04-27T02:41:42.422Z,1.7
2023-04-27T02:42:52.078Z,1.8
2023-04-27T02:44:01.963Z,1.7
2023-04-27T02:45:11.433Z,2
2023-04-27T02:46:19.065Z,2.3
2023-04-27T02:47:28.769Z,2
2023-04-27T02:48:36.444Z,1.5
2023-04-27T02:49:45.115Z,1.3
2023-04-27T02:50:54.762Z,1.3
2023-04-27T02:52:03.418Z,1.5
2023-04-27T02:53:13.071Z,1.6
2023-04-27T02:54:22.744Z,1.5
2023-04-27T02:55:30.388Z,1
2023-04-27T02:56:40.115Z,1.5
2023-04-27T02:57:48.831Z,1.3
2023-04-27T02:58:58.578Z,1.4
2023-04-27T03:00:08.298Z,1.9
2023-04-27T03:01:16.978Z,1.3
2023-04-27T03:02:26.659Z,1.6
2023-04-27T03:03:36.351Z,1.5
2023-04-27T03:04:44.054Z,1.6
2023-04-27T03:05:53.697Z,1.4
2023-04-27T03:07:01.360Z,1.6
2023-04-27T03:08:12.009Z,1.3
2023-04-27T03:09:21.684Z,1.5
2023-04-27T03:10:30.330Z,1.3
2023-04-27T03:11:40.016Z,1.4
2023-04-27T03:12:49.671Z,1.6
2023-04-27T03:13:58.354Z,1.1
2023-04-27T03:15:08.044Z,1.7
2023-04-27T03:16:16.796Z,1.6
2023-04-27T03:17:25.481Z,1.6
2023-04-27T03:18:35.083Z,1.4
2023-04-27T03:19:42.842Z,1.7
2023-04-27T03:20:52.508Z,1.4
2023-04-27T03:22:01.160Z,1.6
2023-04-27T03:23:08.850Z,1.9
2023-04-27T03:24:18.617Z,1.5
2023-04-27T03:25:26.243Z,2
2023-04-27T03:26:35.904Z,1.7
2023-04-27T03:27:45.575Z,1.8
2023-04-27T03:28:53.236Z,1.5
2023-04-27T03:30:02.910Z,1.3
2023-04-27T03:31:11.554Z,1.4
2023-04-27T03:32:20.286Z,1.5
2023-04-27T03:33:29.911Z,1.5
2023-04-27T03:34:38.622Z,1.8
2023-04-27T03:35:48.273Z,1.3
2023-04-27T03:36:57.926Z,1.6
2023-04-27T03:38:05.588Z,1.4
2023-04-27T03:39:15.614Z,1.6
2023-04-27T03:40:24.032Z,1.4
2023-04-27T03:41:31.739Z,1.4
2023-04-27T03:42:41.453Z,1.6
2023-04-27T03:43:51.265Z,1.4
2023-04-27T03:45:00.985Z,1.4
2023-04-27T03:46:10.655Z,1.4
2023-04-27T03:47:18.287Z,1.3
2023-04-27T03:48:28.011Z,1.3
2023-04-27T03:49:37.671Z,1.5
2023-04-27T03:50:45.338Z,1.1
2023-04-27T03:51:55.026Z,1.5
2023-04-27T03:53:02.672Z,1.6
2023-04-27T03:54:11.413Z,1.4
2023-04-27T03:55:21.028Z,1.5
2023-04-27T03:56:30.699Z,1.4
2023-04-27T03:57:40.472Z,1.2
2023-04-27T03:58:50.183Z,1.5
2023-04-27T03:59:59.840Z,1.3
2023-04-27T04:01:09.497Z,1.6
2023-04-27T04:02:17.264Z,1.2
2023-04-27T04:03:26.975Z,1.9
2023-04-27T04:04:36.706Z,1.6
2023-04-27T04:05:46.226Z,1.6
2023-04-27T04:06:55.886Z,1.5
2023-04-27T04:08:05.870Z,1.1
2023-04-27T04:09:14.763Z,1.7
2023-04-27T04:10:24.202Z,1.7
2023-04-27T04:11:31.908Z,2
2023-04-27T04:12:40.546Z,1.4
2023-04-27T04:13:49.184Z,1.9
2023-04-27T04:14:56.894Z,2.1
2023-04-27T04:16:06.613Z,1.9
2023-04-27T04:17:15.242Z,1.7
2023-04-27T04:18:23.900Z,1.8
2023-04-27T04:19:33.687Z,2.2
2023-04-27T04:20:43.362Z,2
2023-04-27T04:21:52.026Z,2.2
2023-04-27T04:23:01.827Z,2.3
2023-04-27T04:24:10.528Z,2.5
2023-04-27T04:25:20.259Z,2.3
2023-04-27T04:26:27.892Z,2
2023-04-27T04:27:36.542Z,2.4
2023-04-27T04:28:46.197Z,2.3
2023-04-27T04:29:53.889Z,2.3
2023-04-27T04:31:02.558Z,2.4
2023-04-27T04:32:12.223Z,2.5
2023-04-27T04:33:19.884Z,2.1
2023-04-27T04:34:29.561Z,2.3
2023-04-27T04:35:38.205Z,2
2023-04-27T04:36:46.949Z,2.6
2023-04-27T04:37:56.531Z,2.3
2023-04-27T04:39:05.220Z,2.3
2023-04-27T04:40:13.870Z,2.2
2023-04-27T04:41:23.590Z,2.5
2023-04-27T04:42:31.241Z,5.8
2023-04-27T04:43:39.874Z,3.9
2023-04-27T04:44:49.566Z,3.7
2023-04-27T04:45:57.223Z,2.9
2023-04-27T04:47:06.856Z,3
2023-04-27T04:48:15.512Z,3.6
2023-04-27T04:49:24.204Z,3.6
2023-04-27T04:50:33.879Z,3.7
2023-04-27T04:51:43.546Z,3.5
2023-04-27T04:52:52.257Z,2.6
2023-04-27T04:54:02.920Z,2.4
2023-04-27T04:55:11.595Z,2.6
2023-04-27T04:56:21.282Z,3.2
2023-04-27T04:57:30.945Z,2.7
2023-04-27T04:58:39.582Z,2.6
2023-04-27T04:59:48.288Z,3
2023-04-27T05:00:57.992Z,3.2
2023-04-27T05:02:06.672Z,5.7
2023-04-27T05:03:16.525Z,7.6
2023-04-27T05:04:25.148Z,7.8
2023-04-27T05:05:33.748Z,7.7
2023-04-27T05:06:43.383Z,7.1
2023-04-27T05:07:53.106Z,14.9
2023-04-27T05:09:02.794Z,1.9
2023-04-27T05:10:11.469Z,2
2023-04-27T05:11:20.127Z,1.5
2023-04-27T05:12:29.808Z,3
2023-04-27T05:13:38.485Z,2.1
2023-04-27T05:14:47.213Z,1.8
2023-04-27T05:15:55.947Z,1.8
2023-04-27T05:17:03.612Z,1.7
2023-04-27T05:18:13.314Z,1.9
2023-04-27T05:19:21.960Z,2.4
2023-04-27T05:20:30.767Z,2.2
2023-04-27T05:21:40.558Z,2.1
2023-04-27T05:22:49.262Z,2
2023-04-27T05:23:58.992Z,1.8
2023-04-27T05:25:08.753Z,2.1
2023-04-27T05:26:17.439Z,1.9
2023-04-27T05:27:27.108Z,1.6
2023-04-27T05:28:35.794Z,1.8
2023-04-27T05:29:44.486Z,3.9
2023-04-27T05:30:54.261Z,2.1
2023-04-27T05:32:02.986Z,1.7
2023-04-27T05:33:11.658Z,1.6
2023-04-27T05:34:21.304Z,1.9
2023-04-27T05:35:30.022Z,1.7
2023-04-27T05:36:39.668Z,1.6
2023-04-27T05:37:49.304Z,1.5
2023-04-27T05:38:56.999Z,1.7
2023-04-27T05:40:06.752Z,1.6
2023-04-27T05:41:16.482Z,2
2023-04-27T05:42:26.148Z,1.8
2023-04-27T05:43:35.945Z,2
2023-04-27T05:44:44.526Z,1.7
2023-04-27T05:45:54.263Z,1.9
2023-04-27T05:47:02.905Z,1.5
2023-04-27T05:48:10.564Z,1.4
2023-04-27T05:49:20.233Z,1.4
2023-04-27T05:50:30.005Z,1.9
2023-04-27T05:51:38.643Z,2
2023-04-27T05:52:48.339Z,2
2023-04-27T05:53:55.998Z,1.8
2023-04-27T05:55:05.710Z,1.7
2023-04-27T05:56:14.478Z,1.6
2023-04-27T05:57:24.195Z,1.8
2023-04-27T05:58:33.937Z,1.7
2023-04-27T05:59:43.617Z,1.6
2023-04-27T06:00:52.357Z,1.8
2023-04-27T06:02:02.144Z,1.5
2023-04-27T06:03:11.984Z,1.7
2023-04-27T06:04:21.632Z,2.5
2023-04-27T06:05:31.395Z,2.3
2023-04-27T06:06:38.917Z,2.4
2023-04-27T06:07:48.616Z,1.9
2023-04-27T06:08:57.298Z,2.3
2023-04-27T06:10:06.997Z,2
2023-04-27T06:11:16.755Z,1.8
2023-04-27T06:12:25.448Z,2.4
2023-04-27T06:13:35.179Z,2.1
2023-04-27T06:14:44.827Z,2.3
2023-04-27T06:15:53.583Z,5.1
2023-04-27T06:17:03.347Z,1.9
2023-04-27T06:18:11.028Z,3.9
2023-04-27T06:19:20.652Z,4
2023-04-27T06:20:30.356Z,3
2023-04-27T06:21:39.067Z,2.7
2023-04-27T06:22:48.852Z,1.9
2023-04-27T06:23:57.555Z,1.8
2023-04-27T06:25:06.208Z,1.6
2023-04-27T06:26:15.925Z,2
2023-04-27T06:27:24.605Z,1.8
2023-04-27T06:28:33.321Z,2.1
2023-04-27T06:29:43.042Z,1.9
2023-04-27T06:30:51.866Z,2.3
2023-04-27T06:32:01.769Z,1.6
2023-04-27T06:33:10.398Z,1.7
2023-04-27T06:34:18.982Z,1.4
2023-04-27T06:35:28.702Z,1.2
2023-04-27T06:36:38.427Z,1.6
2023-04-27T06:37:48.095Z,1.7
2023-04-27T06:38:58.786Z,1.3
2023-04-27T06:40:06.517Z,1.4
2023-04-27T06:41:14.199Z,1.8
2023-04-27T06:42:23.888Z,1.3
2023-04-27T06:43:32.601Z,1.7
2023-04-27T06:44:41.240Z,1.1
2023-04-27T06:45:51.016Z,1.3
2023-04-27T06:46:58.622Z,3.6
2023-04-27T06:48:08.282Z,1.8
2023-04-27T06:49:17.010Z,2.2
2023-04-27T06:50:25.721Z,1.6
2023-04-27T06:51:35.476Z,1.1
2023-04-27T06:52:43.237Z,1
2023-04-27T06:53:51.874Z,1.2
2023-04-27T06:55:01.539Z,1.3
2023-04-27T06:56:11.226Z,1.4
2023-04-27T06:57:20.968Z,1.1
2023-04-27T06:58:30.618Z,1.8
2023-04-27T06:59:40.308Z,2.2
2023-04-27T07:00:49.958Z,2.1
2023-04-27T07:01:58.685Z,1.8
2023-04-27T07:03:07.438Z,1.5
2023-04-27T07:04:17.173Z,1.5
2023-04-27T07:05:24.761Z,1.4
2023-04-27T07:06:34.491Z,1.4
2023-04-27T07:07:43.153Z,1.6
2023-04-27T07:08:52.833Z,1
2023-04-27T07:10:02.731Z,1.2
2023-04-27T07:11:10.202Z,1.2
2023-04-27T07:12:19.879Z,1.5
2023-04-27T07:13:29.607Z,1.7
2023-04-27T07:14:38.270Z,1.7
2023-04-27T07:15:47.944Z,1.2
2023-04-27T07:16:56.640Z,1.8
2023-04-27T07:18:06.673Z,1.5
2023-04-27T07:19:16.198Z,2
2023-04-27T07:20:24.709Z,2
2023-04-27T07:21:34.407Z,1.2
2023-04-27T07:22:44.062Z,1
2023-04-27T07:23:55.044Z,1.4
2023-04-27T07:25:04.478Z,1.7
2023-04-27T07:26:14.183Z,1.4
2023-04-27T07:27:21.836Z,1.5
2023-04-27T07:28:31.483Z,1.3
2023-04-27T07:29:40.139Z,1.5
2023-04-27T07:30:48.915Z,1.9
2023-04-27T07:31:58.644Z,2.8
2023-04-27T07:33:08.366Z,2.6
2023-04-27T07:34:18.005Z,2.6
2023-04-27T07:35:26.637Z,1.9
2023-04-27T07:36:35.306Z,2
2023-04-27T07:37:44.996Z,1.5
2023-04-27T07:38:54.682Z,1.1
2023-04-27T07:40:03.352Z,1.2
2023-04-27T07:41:13.056Z,1.3
2023-04-27T07:42:20.759Z,1
2023-04-27T07:43:30.437Z,1.2
2023-04-27T07:44:40.110Z,1.3
2023-04-27T07:45:48.777Z,1.5
2023-04-27T07:46:58.551Z,1.4
2023-04-27T07:48:07.207Z,1.9
2023-04-27T07:49:16.908Z,1.6
2023-04-27T07:50:26.572Z,1.8
2023-04-27T07:51:35.167Z,1.4
2023-04-27T07:52:44.851Z,0.8
2023-04-27T07:53:54.515Z,1
2023-04-27T07:55:04.260Z,0.9
2023-04-27T07:56:13.924Z,1
2023-04-27T07:57:22.603Z,1.3
2023-04-27T07:58:32.263Z,1.7
2023-04-27T07:59:41.968Z,1.7
2023-04-27T08:00:50.631Z,1.5
2023-04-27T08:02:17.476Z,1.3
2023-04-27T08:03:10.127Z,0.9
2023-04-27T08:04:19.878Z,0.8
2023-04-27T08:05:29.807Z,1.7
2023-04-27T08:06:39.223Z,1.9
2023-04-27T08:07:47.806Z,1.9
2023-04-27T08:08:57.253Z,1.8
2023-04-27T08:10:05.897Z,1.5
2023-04-27T08:11:15.565Z,1.3
2023-04-27T08:12:24.327Z,1
2023-04-27T08:13:33.012Z,0.9
2023-04-27T08:14:41.708Z,1
2023-04-27T08:15:49.385Z,0.6
2023-04-27T08:16:59.090Z,1
2023-04-27T08:18:08.819Z,1.1
2023-04-27T08:19:18.432Z,0.8
2023-04-27T08:20:28.078Z,0.9
2023-04-27T08:21:38.651Z,0.8
2023-04-27T08:22:46.674Z,1
2023-04-27T08:23:56.314Z,0.7
2023-04-27T08:25:04.957Z,1
2023-04-27T08:26:14.673Z,1.1
2023-04-27T08:27:24.406Z,0.9
2023-04-27T08:28:33.062Z,1.1
2023-04-27T08:29:42.787Z,0.8
2023-04-27T08:30:51.423Z,0.7
2023-04-27T08:31:59.153Z,0.8
2023-04-27T08:33:08.867Z,0.9
2023-04-27T08:34:17.529Z,0.7
2023-04-27T08:35:27.172Z,0.8
2023-04-27T08:36:36.835Z,1.3
2023-04-27T08:37:46.582Z,0.7
2023-04-27T08:38:54.178Z,0.8
2023-04-27T08:40:03.957Z,0.7
2023-04-27T08:41:21.136Z,1
2023-04-27T08:42:23.266Z,1
2023-04-27T08:43:32.929Z,0.8
2023-04-27T08:44:40.576Z,0.9
2023-04-27T08:45:50.275Z,0.8
2023-04-27T08:46:58.932Z,0.7
2023-04-27T08:48:07.737Z,1
2023-04-27T08:49:17.528Z,0.7
2023-04-27T08:50:24.921Z,1.5
2023-04-27T08:51:34.607Z,0.7
2023-04-27T08:52:44.239Z,0.9
2023-04-27T08:53:53.898Z,0.9
2023-04-27T08:55:03.565Z,0.6
2023-04-27T08:56:12.217Z,0.8
2023-04-27T08:57:19.895Z,1.1
2023-04-27T08:58:29.568Z,1
2023-04-27T08:59:38.237Z,0.8
2023-04-27T09:00:46.923Z,0.9
2023-04-27T09:01:56.582Z,1.3
2023-04-27T09:03:05.423Z,0.7
2023-04-27T09:04:14.971Z,0.8
2023-04-27T09:05:23.729Z,0.8
2023-04-27T09:06:31.306Z,1.1
2023-04-27T09:07:39.992Z,1.2
2023-04-27T09:08:48.651Z,0.7
2023-04-27T09:09:57.328Z,0.9
2023-04-27T09:11:06.964Z,0.5
2023-04-27T09:12:16.718Z,0.7
2023-04-27T09:13:26.384Z,0.8
2023-04-27T09:14:35.055Z,0.7
2023-04-27T09:15:42.713Z,0.5
2023-04-27T09:16:52.516Z,0.7
2023-04-27T09:17:59.174Z,0.5
2023-04-27T09:19:08.760Z,0.4
2023-04-27T09:20:18.398Z,0.7
2023-04-27T09:21:27.053Z,0.6
2023-04-27T09:22:36.765Z,0.8
2023-04-27T09:23:45.411Z,0.6
2023-04-27T09:24:55.088Z,0.7
2023-04-27T09:26:04.785Z,0.7
2023-04-27T09:27:14.407Z,0.6
2023-04-27T09:28:23.111Z,0.6
2023-04-27T09:29:32.771Z,0.4
2023-04-27T09:30:40.493Z,0.6
2023-04-27T09:31:50.258Z,0.4
2023-04-27T09:32:58.947Z,0.5
2023-04-27T09:34:07.605Z,0.5
2023-04-27T09:35:17.295Z,0.4
2023-04-27T09:36:25.939Z,0.4
2023-04-27T09:37:34.707Z,0.8
2023-04-27T09:38:44.403Z,0.6
2023-04-27T09:39:53.071Z,0.7
2023-04-27T09:41:02.756Z,0.9
2023-04-27T09:42:11.450Z,0.4
2023-04-27T09:43:21.163Z,0.4
2023-04-27T09:44:30.870Z,0.6
2023-04-27T09:45:38.521Z,0.4
2023-04-27T09:46:48.185Z,0.5
2023-04-27T09:47:58.003Z,0.4
2023-04-27T09:49:06.666Z,0.5
2023-04-27T09:50:16.329Z,0.4
2023-04-27T09:51:25.988Z,0.5
2023-04-27T09:52:35.733Z,0.4
2023-04-27T09:53:45.522Z,0.6
2023-04-27T09:54:54.251Z,0.4
2023-04-27T09:56:04.015Z,0.5
2023-04-27T09:57:13.753Z,0.4
2023-04-27T09:58:22.398Z,0.5
2023-04-27T09:59:32.060Z,0.5
2023-04-27T10:00:41.891Z,0.5
2023-04-27T10:01:50.632Z,0.7
2023-04-27T10:03:01.717Z,0.7
2023-04-27T10:04:10.513Z,0.4
2023-04-27T10:05:19.099Z,0.3
2023-04-27T10:06:28.752Z,0.5
2023-04-27T10:07:37.418Z,0.5
2023-04-27T10:08:47.168Z,0.4
2023-04-27T10:09:56.878Z,0.5
2023-04-27T10:11:06.572Z,0.5
2023-04-27T10:12:16.368Z,0.5
2023-04-27T10:13:23.997Z,0.3
2023-04-27T10:14:32.625Z,0.5
2023-04-27T10:15:42.282Z,0.5
2023-04-27T10:16:51.075Z,0.5
2023-04-27T10:17:59.727Z,0.6
2023-04-27T10:19:09.149Z,0.5
2023-04-27T10:20:18.032Z,0.5
2023-04-27T10:21:27.544Z,0.5
2023-04-27T10:22:37.242Z,0.4
2023-04-27T10:23:45.944Z,0.6
2023-04-27T10:24:55.616Z,0.4
2023-04-27T10:26:04.311Z,0.6
2023-04-27T10:27:14.003Z,0.5
2023-04-27T10:28:23.720Z,0.6
2023-04-27T10:29:31.454Z,0.5
2023-04-27T10:30:40.137Z,0.5
2023-04-27T10:31:48.791Z,0.3
2023-04-27T10:32:57.664Z,0.6
2023-04-27T10:34:07.337Z,0.5
2023-04-27T10:35:16.020Z,0.6
2023-04-27T10:36:24.712Z,0.5
2023-04-27T10:37:33.450Z,0.5
2023-04-27T10:38:41.160Z,0.3
2023-04-27T10:39:52.221Z,0.5
2023-04-27T10:41:00.546Z,0.5
2023-04-27T10:42:09.356Z,0.5
2023-04-27T10:43:19.220Z,0.2
2023-04-27T10:44:29.089Z,0.5
2023-04-27T10:45:36.658Z,0.4
2023-04-27T10:46:46.378Z,0.3
2023-04-27T10:47:55.179Z,0.2
2023-04-27T10:49:04.805Z,0.3
2023-04-27T10:50:13.492Z,0.3
2023-04-27T10:51:21.183Z,0.5
2023-04-27T10:52:30.852Z,0.4
2023-04-27T10:53:40.577Z,0.4
2023-04-27T10:54:49.243Z,0.5
2023-04-27T10:55:58.936Z,0.3
2023-04-27T10:57:06.658Z,0.3
2023-04-27T10:58:14.334Z,0.4
2023-04-27T10:59:24.054Z,0.6
2023-04-27T11:00:34.788Z,0.4
2023-04-27T11:01:44.457Z,0.5
2023-04-27T11:02:54.274Z,0.3
2023-04-27T11:04:02.840Z,0.6
2023-04-27T11:05:12.619Z,0.3
2023-04-27T11:06:21.337Z,0.4
2023-04-27T11:07:31.026Z,0.4
2023-04-27T11:08:40.752Z,0.6
2023-04-27T11:09:49.424Z,0.4
2023-04-27T11:10:59.099Z,0.6
2023-04-27T11:12:08.806Z,0.7
2023-04-27T11:13:16.546Z,0.5
2023-04-27T11:14:26.145Z,0.6
2023-04-27T11:15:34.806Z,0.7
2023-04-27T11:16:44.608Z,0.6
2023-04-27T11:17:55.272Z,0.4
2023-04-27T11:19:04.943Z,0.7
2023-04-27T11:20:14.596Z,0.5
2023-04-27T11:21:23.375Z,0.4
2023-04-27T11:22:31.035Z,0.6
2023-04-27T11:23:40.733Z,0.5
2023-04-27T11:24:50.445Z,0.5
2023-04-27T11:26:00.168Z,0.5
2023-04-27T11:27:09.915Z,0.6
2023-04-27T11:28:19.701Z,0.4
2023-04-27T11:29:29.359Z,0.4
2023-04-27T11:30:38.028Z,0.3
2023-04-27T11:31:46.777Z,0.4
2023-04-27T11:32:56.668Z,0.5
2023-04-27T11:34:04.022Z,0.4
2023-04-27T11:35:12.146Z,0.4
2023-04-27T11:36:21.911Z,0.4
2023-04-27T11:37:30.560Z,0.5
2023-04-27T11:38:40.273Z,0.4
2023-04-27T11:39:48.957Z,0.5
2023-04-27T11:40:58.639Z,0.5
2023-04-27T11:42:08.331Z,0.4
2023-04-27T11:43:17.043Z,0.3
2023-04-27T11:44:26.735Z,0.2
2023-04-27T11:45:36.431Z,0.4
2023-04-27T11:46:44.121Z,0.4
2023-04-27T11:47:53.911Z,0.5
2023-04-27T11:49:02.603Z,0.3
2023-04-27T11:50:11.361Z,0.7
2023-04-27T11:51:21.164Z,0.3
2023-04-27T11:52:28.850Z,0.5
2023-04-27T11:53:38.664Z,0.6
2023-04-27T11:54:47.335Z,0.8
2023-04-27T11:55:55.104Z,0.4
2023-04-27T11:57:03.823Z,0.5
2023-04-27T11:58:12.471Z,0.6
2023-04-27T11:59:20.202Z,0.6
2023-04-27T12:00:29.886Z,0.4
2023-04-27T12:01:39.508Z,0.5
2023-04-27T12:02:48.386Z,0.5
2023-04-27T12:03:57.556Z,0.4
2023-04-27T12:05:06.990Z,0.2
2023-04-27T12:06:32.060Z,0.2
2023-04-27T12:07:26.073Z,0.3
2023-04-27T12:08:33.777Z,0.3
2023-04-27T12:09:43.474Z,0.3
2023-04-27T12:10:52.241Z,0.3
2023-04-27T12:12:01.932Z,0.2
2023-04-27T12:13:11.596Z,0.3
2023-04-27T12:14:19.296Z,0.2
2023-04-27T12:15:28.982Z,0.3
2023-04-27T12:16:38.694Z,0.2
2023-04-27T12:17:47.367Z,0.5
2023-04-27T12:18:57.067Z,0.4
2023-04-27T12:20:06.772Z,0.4
2023-04-27T12:21:16.485Z,0.4
2023-04-27T12:22:26.128Z,0.4
2023-04-27T12:23:33.799Z,0.4
2023-04-27T12:24:43.596Z,0.5
2023-04-27T12:25:52.254Z,0.6
2023-04-27T12:27:01.947Z,0.4
2023-04-27T12:28:11.784Z,0.3
2023-04-27T12:29:21.480Z,0.3
2023-04-27T12:30:31.147Z,0.3
2023-04-27T12:31:40.958Z,0.2
2023-04-27T12:32:48.512Z,0.4
2023-04-27T12:33:58.195Z,0.4
2023-04-27T12:35:07.899Z,0.1
2023-04-27T12:36:17.552Z,0.4
2023-04-27T12:37:27.295Z,0.3
2023-04-27T12:38:36.918Z,0.3
2023-04-27T12:39:44.650Z,0.2
2023-04-27T12:40:54.316Z,0.1
2023-04-27T12:42:03.996Z,0.5
2023-04-27T12:43:12.627Z,0.3
2023-04-27T12:44:22.339Z,0.6
2023-04-27T12:45:31.019Z,0.4
2023-04-27T12:46:39.672Z,0.3
2023-04-27T12:48:01.490Z,0.4
2023-04-27T12:48:57.996Z,0.3
2023-04-27T12:50:07.736Z,0.3
2023-04-27T12:51:16.449Z,0.3
2023-04-27T12:52:25.116Z,0.4
2023-04-27T12:53:34.866Z,0.5
2023-04-27T12:54:43.548Z,0.3
2023-04-27T12:55:53.241Z,0.3
2023-04-27T12:57:02.876Z,0.4
2023-04-27T12:58:11.570Z,0.5
2023-04-27T12:59:21.265Z,0.3
2023-04-27T13:00:30.155Z,0.5
2023-04-27T13:01:38.682Z,0.3
2023-04-27T13:02:48.492Z,0.5
2023-04-27T13:03:58.132Z,0.3
2023-04-27T13:05:06.835Z,0.4
2023-04-27T13:06:16.509Z,0.6
2023-04-27T13:07:24.300Z,0.6
2023-04-27T13:08:34.063Z,0.4
2023-04-27T13:09:43.969Z,0.4
2023-04-27T13:10:51.594Z,0.4
2023-04-27T13:12:01.306Z,0.2
2023-04-27T13:13:08.927Z,0.6
2023-04-27T13:14:17.780Z,0.3
2023-04-27T13:15:27.505Z,0.5
2023-04-27T13:16:35.245Z,0.3
2023-04-27T13:17:45.913Z,0.5
2023-04-27T13:18:54.602Z,0.4
2023-04-27T13:20:02.382Z,0.3
2023-04-27T13:21:12.118Z,0.4
2023-04-27T13:22:19.798Z,0.2
2023-04-27T13:23:29.512Z,0.4
2023-04-27T13:24:39.268Z,0.4
2023-04-27T13:25:47.973Z,0.3
2023-04-27T13:26:57.689Z,0.5
2023-04-27T13:28:06.428Z,0.4
2023-04-27T13:29:15.100Z,0.3
2023-04-27T13:30:24.831Z,0.6
2023-04-27T13:31:33.512Z,0.4
2023-04-27T13:32:42.229Z,0.2
2023-04-27T13:33:52.869Z,0.5
2023-04-27T13:35:01.701Z,0.2
2023-04-27T13:36:11.406Z,0.7
2023-04-27T13:37:21.184Z,0.2
2023-04-27T13:38:29.889Z,0.4
2023-04-27T13:39:39.581Z,0.3
2023-04-27T13:40:49.373Z,0.3
2023-04-27T13:41:58.082Z,0.2
2023-04-27T13:43:07.797Z,0.4
2023-04-27T13:44:15.663Z,0.6
2023-04-27T13:45:25.226Z,0.4
2023-04-27T13:46:33.966Z,0.4
2023-04-27T13:47:41.646Z,0.6
2023-04-27T13:48:51.362Z,0.4
2023-04-27T13:49:59.149Z,0.4
2023-04-27T13:51:07.827Z,0.2
2023-04-27T13:52:17.493Z,0.3
2023-04-27T13:53:26.199Z,0.4
2023-04-27T13:54:35.838Z,0.5
2023-04-27T13:55:44.490Z,0.5
2023-04-27T13:56:53.274Z,0.4
2023-04-27T13:58:03.027Z,0.3
2023-04-27T13:59:11.859Z,0.7
2023-04-27T14:00:20.420Z,0.4
2023-04-27T14:01:30.191Z,0.2
2023-04-27T14:02:37.898Z,0.5
2023-04-27T14:03:47.635Z,0.4
2023-04-27T14:04:56.479Z,0.3
2023-04-27T14:06:05.113Z,0.3
2023-04-27T14:07:14.825Z,0.3
2023-04-27T14:08:23.485Z,0.3
2023-04-27T14:09:32.133Z,0.4
2023-04-27T14:10:41.854Z,0.4
2023-04-27T14:11:56.703Z,0.4
2023-04-27T14:13:01.197Z,0.3
2023-04-27T14:14:09.895Z,0.4
2023-04-27T14:15:17.561Z,0.4
2023-04-27T14:16:27.293Z,0.2
2023-04-27T14:17:34.905Z,0.2
2023-04-27T14:18:43.547Z,0.3
2023-04-27T14:19:53.233Z,0.2
2023-04-27T14:21:01.939Z,0.2
2023-04-27T14:22:11.598Z,0.5
2023-04-27T14:23:20.246Z,0.4
2023-04-27T14:24:28.928Z,0.4
2023-04-27T14:25:38.747Z,0.3
2023-04-27T14:26:46.354Z,0.1
2023-04-27T14:27:55.019Z,0.3
2023-04-27T14:29:04.701Z,0.3
2023-04-27T14:30:13.368Z,0.3
2023-04-27T14:31:23.077Z,0.3
2023-04-27T14:32:32.766Z,0.1
2023-04-27T14:33:41.405Z,0.3
2023-04-27T14:34:51.172Z,0.2
2023-04-27T14:36:00.877Z,0.3
2023-04-27T14:37:10.576Z,0.2
2023-04-27T14:38:20.277Z,0.4
2023-04-27T14:39:29.001Z,0.4
2023-04-27T14:40:37.709Z,0.3
2023-04-27T14:41:47.380Z,0.6
2023-04-27T14:42:56.056Z,0.3
2023-04-27T14:44:05.779Z,0.4
2023-04-27T14:45:15.489Z,0.4
2023-04-27T14:46:24.230Z,0.3
2023-04-27T14:47:33.900Z,0.3
2023-04-27T14:48:43.571Z,0.6
2023-04-27T14:49:52.248Z,0.4
2023-04-27T14:51:01.039Z,0.2
2023-04-27T14:52:09.695Z,0.4
2023-04-27T14:53:18.366Z,0.3
2023-04-27T14:54:28.042Z,0.5
2023-04-27T14:55:36.691Z,0.5
2023-04-27T14:56:46.385Z,0.3
2023-04-27T14:57:56.095Z,0.2
2023-04-27T14:59:05.785Z,0.4
2023-04-27T15:00:15.567Z,0.4
2023-04-27T15:01:24.366Z,0.3
2023-04-27T15:02:34.133Z,0.3
2023-04-27T15:03:43.767Z,0.2
2023-04-27T15:04:52.396Z,0.3
2023-04-27T15:06:03.119Z,0.4
2023-04-27T15:07:12.749Z,0.3
2023-04-27T15:08:21.498Z,0.4
2023-04-27T15:09:31.221Z,0.2
2023-04-27T15:10:39.874Z,0.3
2023-04-27T15:11:48.653Z,0.1
2023-04-27T15:12:58.314Z,0.5
2023-04-27T15:14:06.976Z,0.2
2023-04-27T15:15:16.622Z,0.3
2023-04-27T15:16:26.334Z,0.2
2023-04-27T15:17:35.033Z,0.2
2023-04-27T15:18:44.641Z,0.3
2023-04-27T15:19:52.300Z,0.4
2023-04-27T15:21:02.048Z,0.2
2023-04-27T15:22:11.694Z,0.3
2023-04-27T15:23:19.377Z,0.5
2023-04-27T15:24:29.056Z,0.3
2023-04-27T15:25:37.835Z,0.3
2023-04-27T15:26:45.554Z,0.3
2023-04-27T15:27:55.283Z,0.5
2023-04-27T15:29:03.961Z,0.4
2023-04-27T15:30:13.625Z,0.3
2023-04-27T15:31:23.404Z,0.3
2023-04-27T15:32:31.091Z,0.4
2023-04-27T15:33:40.814Z,0.3
2023-04-27T15:34:49.393Z,0.6
2023-04-27T15:35:58.076Z,0.5
2023-04-27T15:37:07.912Z,0.3
2023-04-27T15:38:15.546Z,0.3
2023-04-27T15:39:25.241Z,0.3
2023-04-27T15:40:35.130Z,0.3
2023-04-27T15:41:42.915Z,0.5
2023-04-27T15:42:52.686Z,0.5
2023-04-27T15:44:01.408Z,0.7
2023-04-27T15:45:11.143Z,0.6
2023-04-27T15:46:20.904Z,0.6
2023-04-27T15:47:28.653Z,0.5
2023-04-27T15:48:38.357Z,0.3
2023-04-27T15:49:56.582Z,0.4
2023-04-27T15:50:56.673Z,0.2
2023-04-27T15:52:07.440Z,0.3
2023-04-27T15:53:16.059Z,0.4
2023-04-27T15:54:25.710Z,0.3
2023-04-27T15:55:35.419Z,0.4